Terminal Aerodrome Forecast
Issued by NWS

Home | Current Version | Previous Version | Graphics & Text | Print | Product List | Glossary On
Versions: 1 2 3 4 5 6 7 8 9 10 11 12 13 14 15 16 17 18 19 20 21 22 23 24 25 26 27 28 29
000
FTUS43 KGRB 202337
TAFRHI
TAF
KRHI 202337Z 2100/2124 33006KT P6SM VCSH OVC015
      TEMPO 2100/2102 4SM -RADZ OVC008
     FM210200 34007KT P6SM OVC011
      TEMPO 2102/2106 4SM -RASN BR OVC009
     FM211500 35008KT P6SM FEW013 BKN020
     FM211700 36010KT P6SM FEW020 BKN040
     FM212200 35008KT P6SM FEW045=

USA.gov is the U.S. government's official web portal to all federal, state and local government web resources and services.